NEODyS-2

Near Earth Objects - Dynamic Site
NEODyS ∴ Observatories ∴ Site 691 ∴ Obs & residuals
Contact »
691  ▹ 
OBSERVATIONS AND RESIDUALS

691-Steward Observatory, Kitt Peak-Spacewatch

Detections | Residuals | Detections & Residuals

[1-200] [201-400] [401-600] [601-800] [801-1000] [1001-1200] [1201-1400] [1401-1600] [1601-1800] [1801-2000] [2001-2200] [2201-2400] [2401-2600] [2601-2800] [2801-3000] [3001-3200] [3201-3400] [3401-3600] [3601-3800] [3801-4000] [4001-4200] [4201-4400] [4401-4600] [4601-4800] [4801-5000] [5001-5200] [5201-5400] [5401-5600] [5601-5800] [5801-6000] [6001-6200] [6201-6400] [6401-6600] [6601-6800] [6801-7000] [7001-7200] [7201-7400] [7401-7600] [7601-7800] [7801-8000] [8001-8200] [8201-8400] [8401-8600] [8601-8800] [8801-9000] [9001-9200] [9201-9400] [9401-9600] [9601-9800] [9801-10000] [10001-10200] [10201-10400] [10401-10600] [10601-10800] [10801-11000] [11001-11200] [11201-11400] [11401-11600] [11601-11800] [11801-12000] [12001-12200] [12201-12400] [12401-12600] [12601-12800] [12801-13000] [13001-13200] [13201-13400] [13401-13600] [13601-13800] [13801-14000] [14001-14200] [14201-14400] [14401-14600] [14601-14800] [14801-15000] [15001-15200] [15201-15400] [15401-15600] [15601-15800] [15801-16000] [16001-16200] [16201-16400] [16401-16600] [16601-16800] [16801-17000] [17001-17200] [17201-17400] [17401-17600] [17601-17800] [17801-18000] [18001-18200] [18201-18400] [18401-18600] [18601-18800] [18801-19000] [19001-19200] [19201-19400] [19401-19600] [19601-19800] [19801-20000] [20001-20200] [20201-20400] [20401-20600] [20601-20800] [20801-21000] [21001-21200] [21201-21400] [21401-21600] [21601-21800] [21801-22000] [22001-22200] [22201-22400] [22401-22600] [22601-22800] [22801-23000] [23001-23200] [23201-23400] [23401-23600] [23601-23800] [23801-24000] [24001-24200] [24201-24400] [24401-24600] [24601-24800] [24801-25000] [25001-25200] [25201-25400] [25401-25600] [25601-25800] [25801-26000] [26001-26200] [26201-26400] [26401-26600] [26601-26800] [26801-27000] [27001-27200] [27201-27400] [27401-27600] [27601-27800] [27801-28000] [28001-28200] [28201-28400] [28401-28600] [28601-28800] [28801-29000] [29001-29200] [29201-29400] [29401-29600] [29601-29800] [29801-30000] [30001-30200] [30201-30400] [30401-30600] [30601-30800] [30801-31000] [31001-31200] [31201-31400] [31401-31600] [31601-31800] [31801-32000] [32001-32200] [32201-32400] [32401-32600] [32601-32800] [32801-33000] [33001-33200] [33201-33400] [33401-33600] [33601-33800] [33801-34000] [34001-34200] [34201-34400] [34401-34600] [34601-34800] [34801-35000] [35001-35200] [35201-35400] [35401-35600] [35601-35800] [35801-36000] [36001-36200] [36201-36400] [36401-36600] [36601-36800] [36801-37000] [37001-37200] [37201-37400] [37401-37600] [37601-37800] [37801-38000] [38001-38200] [38201-38400] [38401-38600] [38601-38800] [38801-39000] [39001-39200] [39201-39400] [39401-39600] [39601-39800] [39801-40000] [40001-40200] [40201-40400] [40401-40600] [40601-40800] [40801-41000] [41001-41200] [41201-41400] [41401-41600] [41601-41800] [41801-42000] [42001-42200] [42201-42400] [42401-42600] [42601-42800] [42801-43000] [43001-43200] [43201-43400] [43401-43600] [43601-43800] [43801-44000] [44001-44200] [44201-44400] [44401-44600] [44601-44800] [44801-45000] [45001-45200] [45201-45400] [45401-45600] [45601-45800] [45801-46000] [46001-46200] [46201-46400] [46401-46600] [46601-46800] [46801-47000] [47001-47200] [47201-47400] [47401-47600] [47601-47800] [47801-48000] [48001-48200] [48201-48400] [48401-48600] [48601-48800] [48801-49000] [49001-49200] [49201-49400] [49401-49600] [49601-49800] [49801-50000] [50001-50200] [50201-50400] [50401-50600] [50601-50741]

Designation T Tech N Date Right Ascension Declination Apparent Magnitude Star Catalog Site code χ Used A Used M
yr-mo-day precision hr:min:sec precision rms F bias residual deg min sec precision rms F bias residual mag/col rms residual
2013RM43 O C 2013-09-29.47159 1.000E-05 02:33:55.540 1.500E-01 0.500 F -0.230 -0.064 -01° 27' 27.20" 1.000E-01 0.500 F 0.169 0.101 19.9 V 0.70 0.15 o 691 0.24 Yes Yes
2013RB74 O C 2013-09-29.47608 1.000E-05 02:58:34.700 1.500E-01 0.500 F -0.247 -0.083 -03° 21' 02.80" 1.000E-01 0.500 F 0.186 0.498 20.3 V 0.70 0.07 o 691 1.02 Yes Yes
2013RB74 O C 2013-09-29.47811 1.000E-05 02:58:35.240 1.500E-01 0.500 F -0.247 0.148 -03° 21' 03.20" 1.000E-01 0.500 F 0.186 -0.492 20.1 V 0.70 -0.13 o 691 1.04 Yes Yes
2013RB74 O C 2013-09-29.48407 1.000E-05 02:58:36.790 1.500E-01 0.500 F -0.247 0.279 -03° 21' 00.80" 1.000E-01 0.500 F 0.186 0.172 20.4 V 0.70 0.17 o 691 0.67 Yes Yes
2013PA7 O C H 2013-09-30.18271 1.000E-05 20:38:42.300 1.500E-01 0.500 F -0.113 0.572 -12° 46' 46.50" 1.000E-01 0.500 F 0.258 -0.397 o 691 1.40 Yes No
2013PA7 O C H 2013-09-30.18683 1.000E-05 20:38:42.370 1.500E-01 0.500 F -0.113 0.083 -12° 46' 42.00" 1.000E-01 0.500 F 0.258 -0.037 o 691 0.18 Yes No
2013PA7 O C H 2013-09-30.19094 1.000E-05 20:38:42.570 1.500E-01 0.500 F -0.113 1.493 -12° 46' 39.00" 1.000E-01 0.500 F 0.258 -1.172 o 691 3.78 No No
2013RW73 O C H 2013-09-30.20818 1.000E-05 21:46:10.430 1.500E-01 0.500 F -0.013 -0.261 +13° 04' 19.30" 1.000E-01 0.500 F 0.178 -0.523 20.9 V 0.70 0.47 o 691 1.19 Yes Yes
2013RW73 O C H 2013-09-30.21486 1.000E-05 21:46:10.780 1.500E-01 0.500 F -0.013 0.204 +13° 04' 29.00" 1.000E-01 0.500 F 0.178 -0.442 20.6 V 0.70 0.17 o 691 0.99 Yes Yes
2013RW73 O C H 2013-09-30.21854 1.000E-05 21:46:10.910 1.500E-01 0.500 F -0.013 -0.460 +13° 04' 35.00" 1.000E-01 0.500 F 0.178 0.264 20.6 V 0.70 0.17 o 691 1.07 Yes Yes
2013RV9 O C H 2013-09-30.22507 1.000E-05 21:39:34.620 1.500E-01 0.500 F -0.046 -0.196 +09° 14' 42.50" 1.000E-01 0.500 F 0.150 -0.427 20.2 V 0.70 0.16 o 691 0.95 Yes Yes
2013RV9 O C H 2013-09-30.22711 1.000E-05 21:39:34.090 1.500E-01 0.500 F -0.046 0.893 +09° 14' 45.60" 1.000E-01 0.500 F 0.150 -0.998 o 691 2.72 Yes No
2013RV9 O C H 2013-09-30.22913 1.000E-05 21:39:33.390 1.500E-01 0.500 F -0.046 -0.625 +09° 14' 50.40" 1.000E-01 0.500 F 0.150 0.170 20.1 V 0.70 0.06 o 691 1.31 Yes Yes
2013RR5 O C H 2013-09-30.23366 1.000E-05 23:01:04.560 1.500E-01 0.500 F -0.035 0.631 -02° 12' 55.40" 1.000E-01 0.500 F 0.281 0.124 20.7 V 0.70 -0.01 o 691 1.33 Yes Yes
2013RR5 O C H 2013-09-30.23967 1.000E-05 23:01:04.380 1.500E-01 0.500 F -0.035 1.273 -02° 12' 46.30" 1.000E-01 0.500 F 0.281 -1.023 o 691 3.17 No No
2013RD21 O C H 2013-09-30.24477 1.000E-05 23:11:36.940 1.500E-01 0.500 F -0.171 0.864 -12° 58' 38.70" 1.000E-01 0.500 F 0.221 -0.641 o 691 2.21 Yes No
2013RD21 O C H 2013-09-30.25299 1.000E-05 23:11:36.500 1.500E-01 0.500 F -0.171 0.604 -12° 58' 44.10" 1.000E-01 0.500 F 0.221 0.626 o 691 1.81 Yes No
2013RD21 O C H 2013-09-30.25767 1.000E-05 23:11:36.280 1.500E-01 0.500 F -0.171 0.901 -12° 58' 49.00" 1.000E-01 0.500 F 0.221 -0.481 o 691 2.10 Yes No
2013RJ74 O C H 2013-09-30.26998 1.000E-05 23:08:37.140 1.500E-01 0.500 F -0.064 -0.422 +03° 37' 24.30" 1.000E-01 0.500 F 0.242 -0.289 21.1 V 0.70 0.50 o 691 1.03 Yes Yes
2013RJ74 O C H 2013-09-30.27277 1.000E-05 23:08:36.800 1.500E-01 0.500 F -0.064 0.669 +03° 37' 24.60" 1.000E-01 0.500 F 0.242 -0.416 21.0 V 0.70 0.40 o 691 1.59 Yes Yes
2013RJ74 O C H 2013-09-30.27556 1.000E-05 23:08:36.390 1.500E-01 0.500 F -0.064 0.712 +03° 37' 24.80" 1.000E-01 0.500 F 0.242 -0.644 o 691 1.93 Yes No
2013PO43 O C 2013-09-30.28173 1.000E-05 22:59:08.260 1.500E-01 0.500 F -0.075 0.017 +11° 10' 13.00" 1.000E-01 0.500 F 0.134 -0.008 21.4 V 0.70 0.06 o 691 0.04 Yes Yes
2013PO43 O C 2013-09-30.28916 1.000E-05 22:59:08.190 1.500E-01 0.500 F -0.075 0.257 +11° 10' 16.80" 1.000E-01 0.500 F 0.134 0.170 21.4 V 0.70 0.06 o 691 0.64 Yes Yes
2013PO43 O C 2013-09-30.29659 1.000E-05 22:59:08.070 1.500E-01 0.500 F -0.075 -0.252 +11° 10' 20.20" 1.000E-01 0.500 F 0.134 -0.043 21.3 V 0.70 -0.04 o 691 0.54 Yes Yes
2013RH43 O C 2013-09-30.30104 1.000E-05 23:02:49.520 1.500E-01 0.500 F -0.051 -1.074 +05° 27' 20.20" 1.000E-01 0.500 F 0.301 -0.259 21.4 V 0.70 0.88 o 691 2.25 Yes Yes
2004EN20 O C 2013-09-30.30104 1.000E-05 23:05:12.730 1.500E-01 0.500 F -0.051 -0.203 +05° 23' 18.80" 1.000E-01 0.500 F 0.301 -0.099 18.2 V 0.70 0.04 o 691 0.47 Yes Yes
2013RH43 O C 2013-09-30.30405 1.000E-05 23:02:49.860 1.500E-01 0.500 F -0.051 -0.876 +05° 27' 18.50" 1.000E-01 0.500 F 0.301 0.341 20.8 V 0.70 0.28 o 691 1.91 Yes Yes
2004EN20 O C 2013-09-30.30405 1.000E-05 23:05:12.570 1.500E-01 0.500 F -0.051 -0.150 +05° 23' 03.10" 1.000E-01 0.500 F 0.301 -0.076 18.3 V 0.70 0.14 o 691 0.35 Yes Yes
2013RH43 O C 2013-09-30.30705 1.000E-05 23:02:50.220 1.500E-01 0.500 F -0.051 -0.367 +05° 27' 15.90" 1.000E-01 0.500 F 0.301 0.033 21.3 V 0.70 0.78 o 691 0.75 Yes Yes
2004EN20 O C 2013-09-30.30705 1.000E-05 23:05:12.390 1.500E-01 0.500 F -0.051 -0.405 +05° 22' 47.30" 1.000E-01 0.500 F 0.301 -0.205 18.2 V 0.70 0.04 o 691 0.94 Yes Yes
2013SL30 O C 2013-09-30.33698 1.000E-05 00:26:48.860 1.500E-01 0.500 F -0.236 -0.111 -17° 11' 09.70" 1.000E-01 0.500 F 0.177 0.394 19.7 V 0.70 -0.07 o 691 0.83 Yes Yes
2013QJ48 O C H 2013-09-30.33698 1.000E-05 00:23:56.160 1.500E-01 0.500 F -0.236 0.398 -17° 11' 33.20" 1.000E-01 0.500 F 0.177 -0.505 o 691 1.35 Yes No
2013SL30 O C 2013-09-30.34440 1.000E-05 00:26:47.370 1.500E-01 0.500 F -0.236 -0.678 -17° 10' 49.60" 1.000E-01 0.500 F 0.177 1.118 19.5 V 0.70 -0.27 o 691 2.63 Yes Yes
2013QJ48 O C H 2013-09-30.34440 1.000E-05 00:23:56.080 1.500E-01 0.500 F -0.236 0.347 -17° 11' 28.60" 1.000E-01 0.500 F 0.177 -0.138 o 691 0.78 Yes No
2013SL30 O C 2013-09-30.35182 1.000E-05 00:26:45.940 1.500E-01 0.500 F -0.236 -0.398 -17° 10' 31.20" 1.000E-01 0.500 F 0.177 0.134 19.7 V 0.70 -0.07 o 691 0.85 Yes Yes
2013QJ48 O C H 2013-09-30.35182 1.000E-05 00:23:55.970 1.500E-01 0.500 F -0.236 -0.145 -17° 11' 24.10" 1.000E-01 0.500 F 0.177 0.116 21.2 V 0.70 -0.05 o 691 0.39 Yes Yes
2013RL21 O C t 2013-09-30.36232 1.000E-05 00:16:53.240 1.500E-01 0.500 F -0.300 1.030 +16° 39' 00.70" 1.000E-01 0.500 F 0.437 -0.933 21.2 V 0.70 0.59 o 691 2.92 Yes Yes
2013RL21 O C t 2013-09-30.36527 1.000E-05 00:16:53.840 1.500E-01 0.500 F -0.300 0.862 +16° 38' 58.80" 1.000E-01 0.500 F 0.437 -0.375 20.1 V 0.70 -0.51 o 691 1.98 Yes Yes
2013RL21 O C t 2013-09-30.36821 1.000E-05 00:16:54.400 1.500E-01 0.500 F -0.300 0.143 +16° 38' 56.40" 1.000E-01 0.500 F 0.437 -0.322 20.3 V 0.70 -0.31 o 691 0.74 Yes Yes
2013RZ73 O C 2013-09-30.37196 1.000E-05 00:20:30.310 1.500E-01 0.500 F -0.121 -0.212 +36° 15' 27.00" 1.000E-01 0.500 F 0.250 -0.087 19.6 V 0.70 -0.29 o 691 0.47 Yes Yes
2013RZ73 O C 2013-09-30.37376 1.000E-05 00:20:29.570 1.500E-01 0.500 F -0.121 -0.195 +36° 15' 26.10" 1.000E-01 0.500 F 0.250 -0.036 19.4 V 0.70 -0.49 o 691 0.40 Yes Yes
2013RZ73 O C 2013-09-30.37556 1.000E-05 00:20:28.820 1.500E-01 0.500 F -0.121 -0.301 +36° 15' 25.30" 1.000E-01 0.500 F 0.250 0.117 19.4 V 0.70 -0.49 o 691 0.65 Yes Yes
2013RU9 O C t 2013-09-30.41450 1.000E-05 00:35:17.780 1.500E-01 0.500 F -0.098 0.412 +47° 18' 06.70" 1.000E-01 0.500 F 0.212 -0.134 20.2 V 0.70 -0.25 o 691 1.00 Yes Yes
2013RU9 O C t 2013-09-30.41675 1.000E-05 00:35:19.190 1.500E-01 0.500 F -0.098 0.140 +47° 18' 26.60" 1.000E-01 0.500 F 0.212 0.323 23.2 V 0.70 2.75 o 691 0.82 Yes No
2013RU9 O C t 2013-09-30.41900 1.000E-05 00:35:20.600 1.500E-01 0.500 F -0.098 -0.147 +47° 18' 45.30" 1.000E-01 0.500 F 0.212 -0.409 20.8 V 0.70 0.35 o 691 1.01 Yes Yes
2013SC25 O C H 2013-09-30.46015 1.000E-05 02:43:09.910 1.500E-01 0.500 F -0.067 0.564 +39° 09' 18.50" 1.000E-01 0.500 F 0.257 -0.401 o 691 1.39 Yes No
2001FB7 O C 2013-09-30.46015 1.000E-05 02:44:19.930 1.500E-01 0.500 F -0.059 -0.125 +38° 20' 20.80" 1.000E-01 0.500 F 0.241 -0.131 20.2 V 0.70 0.05 o 691 0.37 Yes Yes
2013SC25 O C H 2013-09-30.46468 1.000E-05 02:43:09.820 1.500E-01 0.500 F -0.067 0.138 +39° 09' 23.40" 1.000E-01 0.500 F 0.257 -0.476 o 691 0.99 Yes No
2001FB7 O C 2013-09-30.46468 1.000E-05 02:44:19.560 1.500E-01 0.500 F -0.059 0.086 +38° 20' 29.20" 1.000E-01 0.500 F 0.241 0.444 20.0 V 0.70 -0.15 o 691 0.92 Yes Yes
2013SC25 O C H 2013-09-30.46921 1.000E-05 02:43:09.750 1.500E-01 0.500 F -0.067 -0.057 +39° 09' 28.90" 1.000E-01 0.500 F 0.257 0.055 21.0 V 0.70 0.34 o 691 0.16 Yes Yes
2001FB7 O C 2013-09-30.46921 1.000E-05 02:44:19.170 1.500E-01 0.500 F -0.059 0.060 +38° 20' 36.20" 1.000E-01 0.500 F 0.241 -0.376 20.1 V 0.70 -0.05 o 691 0.77 Yes Yes
2010VM1 O C 2013-10-01.20509 1.000E-05 01:44:48.560 1.500E-01 0.500 F -0.233 -0.282 +03° 09' 42.20" 1.000E-01 0.500 F 0.236 0.160 20.5 V 0.70 -0.03 o 691 0.65 Yes Yes
2010VM1 O C 2013-10-01.23042 1.000E-05 01:44:46.710 1.500E-01 0.500 F -0.233 -0.538 +03° 09' 21.40" 1.000E-01 0.500 F 0.236 0.497 20.8 V 0.70 0.27 o 691 1.47 Yes Yes
2010VM1 O C 2013-10-01.25497 1.000E-05 01:44:44.930 1.500E-01 0.500 F -0.233 -0.356 +03° 09' 00.50" 1.000E-01 0.500 F 0.236 0.091 21.3 V 0.70 0.77 o 691 0.74 Yes Yes
2005TE15 O C 2013-10-01.33750 1.000E-05 02:16:28.230 1.500E-01 0.500 F -0.253 -0.181 +18° 03' 30.90" 1.000E-01 0.500 F 0.251 -0.290 19.4 V 0.70 0.23 o 691 0.69 Yes Yes
2005TE15 O C 2013-10-01.35917 1.000E-05 02:16:23.110 1.500E-01 0.500 F -0.253 -0.232 +18° 03' 49.30" 1.000E-01 0.500 F 0.251 0.446 20.5 V 0.70 1.33 o 691 1.01 Yes Yes
2005TE15 O C 2013-10-01.38109 1.000E-05 02:16:17.930 1.500E-01 0.500 F -0.253 -0.239 +18° 04' 06.40" 1.000E-01 0.500 F 0.251 -0.173 19.4 V 0.70 0.24 o 691 0.59 Yes Yes
2013TL O C 2013-10-01.45770 1.000E-05 03:09:39.370 1.500E-01 0.500 F -0.281 -0.955 +15° 27' 44.50" 1.000E-01 0.500 F 0.214 -0.430 19.4 V 0.70 0.04 o 691 2.17 Yes Yes
2000JQ66 O C 2013-10-01.47057 1.000E-05 03:16:36.670 1.500E-01 0.500 F -0.243 -0.029 +13° 27' 11.60" 1.000E-01 0.500 F 0.292 -0.034 20.5 V 0.70 0.17 o 691 0.09 Yes Yes
2013TL O C 2013-10-01.47591 1.000E-05 03:09:47.920 1.500E-01 0.500 F -0.281 0.424 +15° 29' 13.30" 1.000E-01 0.500 F 0.214 0.553 19.5 V 0.70 0.15 o 691 1.44 Yes Yes
2000JQ66 O C 2013-10-01.48902 1.000E-05 03:16:35.880 1.500E-01 0.500 F -0.243 0.169 +13° 27' 01.90" 1.000E-01 0.500 F 0.292 0.270 20.4 V 0.70 0.07 o 691 0.64 Yes Yes
2013TL O C 2013-10-01.49412 1.000E-05 03:09:56.340 1.500E-01 0.500 F -0.281 -0.570 +15° 30' 40.00" 1.000E-01 0.500 F 0.214 -0.480 19.8 V 0.70 0.45 o 691 1.54 Yes Yes
2000JQ66 O C 2013-10-01.50724 1.000E-05 03:16:35.050 1.500E-01 0.500 F -0.243 -0.393 +13° 26' 51.80" 1.000E-01 0.500 F 0.292 0.073 20.3 V 0.70 -0.03 o 691 0.80 Yes Yes
2013PV6 O C 2013-10-02.29825 1.000E-05 02:53:33.510 1.500E-01 0.500 F -0.192 -0.222 +10° 00' 52.00" 1.000E-01 0.500 F 0.254 -0.045 18.6 V 0.70 0.12 o 691 0.46 Yes Yes
2013PV6 O C 2013-10-02.31646 1.000E-05 02:53:33.940 1.500E-01 0.500 F -0.192 -0.109 +10° 00' 33.00" 1.000E-01 0.500 F 0.254 0.018 18.7 V 0.70 0.22 o 691 0.22 Yes Yes
2013PV6 O C 2013-10-02.33467 1.000E-05 02:53:34.350 1.500E-01 0.500 F -0.192 -0.118 +10° 00' 13.90" 1.000E-01 0.500 F 0.254 0.027 18.7 V 0.70 0.22 o 691 0.24 Yes Yes
2013TG4 O C 2013-10-02.34866 1.000E-05 03:08:47.750 1.500E-01 0.500 F -0.176 0.312 +26° 09' 05.80" 1.000E-01 0.500 F 0.255 -0.077 20.9 V 0.70 -0.47 o 691 0.65 Yes Yes
2013TG4 O C 2013-10-02.36689 1.000E-05 03:08:49.060 1.500E-01 0.500 F -0.176 -0.346 +26° 09' 27.90" 1.000E-01 0.500 F 0.255 -0.027 21.5 V 0.70 0.13 o 691 0.71 Yes Yes
2013TG4 O C 2013-10-02.38537 1.000E-05 03:08:50.440 1.500E-01 0.500 F -0.176 -0.219 +26° 09' 50.00" 1.000E-01 0.500 F 0.255 -0.149 21.3 V 0.70 -0.07 o 691 0.54 Yes Yes
2013TS4 O C 2013-10-03.32624 1.000E-05 02:55:04.470 1.500E-01 0.500 F -0.321 -0.102 +20° 15' 49.90" 1.000E-01 0.500 F 0.267 0.152 19.7 V 0.70 -0.45 o 691 0.37 Yes Yes
2013TS4 O C 2013-10-03.34471 1.000E-05 02:55:06.560 1.500E-01 0.500 F -0.321 -0.093 +20° 15' 52.20" 1.000E-01 0.500 F 0.267 -0.071 19.9 V 0.70 -0.25 o 691 0.23 Yes Yes
2013TS4 O C 2013-10-03.36294 1.000E-05 02:55:08.620 1.500E-01 0.500 F -0.321 -0.013 +20° 15' 54.50" 1.000E-01 0.500 F 0.267 -0.148 19.9 V 0.70 -0.25 o 691 0.30 Yes Yes
2008TA1 O C 2013-10-04.17973 1.000E-05 02:08:06.050 1.500E-01 0.500 F -0.299 -0.371 +12° 29' 25.30" 1.000E-01 0.500 F 0.220 -0.266 20.6 V 0.70 0.25 o 691 0.91 Yes Yes
1990TG1 O C 2013-10-04.17973 1.000E-05 02:03:36.060 1.500E-01 0.500 F -0.224 -0.311 +12° 20' 12.50" 1.000E-01 0.500 F 0.165 0.300 19.7 V 0.70 0.43 o 691 0.86 Yes Yes
2008TA1 O C 2013-10-04.19745 1.000E-05 02:08:04.200 1.500E-01 0.500 F -0.299 -0.336 +12° 29' 28.40" 1.000E-01 0.500 F 0.220 -0.009 20.3 V 0.70 -0.04 o 691 0.67 Yes Yes
1990TG1 O C 2013-10-04.19745 1.000E-05 02:03:34.930 1.500E-01 0.500 F -0.224 -0.287 +12° 20' 04.70" 1.000E-01 0.500 F 0.165 0.204 19.5 V 0.70 0.23 o 691 0.70 Yes Yes
2008TA1 O C 2013-10-04.21518 1.000E-05 02:08:02.370 1.500E-01 0.500 F -0.299 0.122 +12° 29' 31.00" 1.000E-01 0.500 F 0.220 -0.238 20.2 V 0.70 -0.14 o 691 0.54 Yes Yes
1990TG1 O C 2013-10-04.21518 1.000E-05 02:03:33.810 1.500E-01 0.500 F -0.224 -0.066 +12° 19' 56.70" 1.000E-01 0.500 F 0.165 -0.080 19.5 V 0.70 0.23 o 691 0.21 Yes Yes
2009FU4 O C 2013-10-04.42730 1.000E-05 03:49:42.810 1.500E-01 0.500 F -0.040 -0.207 +19° 22' 16.80" 1.000E-01 0.500 F 0.220 -0.145 21.3 V 0.70 -0.20 o 691 0.51 Yes Yes
2000HW23 O C 2013-10-04.42992 1.000E-05 03:36:08.380 1.500E-01 0.500 F -0.343 -0.064 +16° 25' 15.00" 1.000E-01 0.500 F 0.143 0.273 20.6 V 0.70 -0.51 o 691 0.56 Yes Yes
2002FW5 O C 2013-10-04.42992 1.000E-05 03:38:03.790 1.500E-01 0.500 F -0.217 -0.133 +17° 12' 34.50" 1.000E-01 0.500 F 0.217 -0.098 18.6 V 0.70 -0.04 o 691 0.33 Yes Yes
2009FU4 O C 2013-10-04.44245 1.000E-05 03:49:41.900 1.500E-01 0.500 F -0.040 -0.271 +19° 22' 18.10" 1.000E-01 0.500 F 0.220 -0.347 21.0 V 0.70 -0.50 o 691 0.89 Yes Yes
2000HW23 O C 2013-10-04.44507 1.000E-05 03:36:07.560 1.500E-01 0.500 F -0.343 -0.620 +16° 25' 15.30" 1.000E-01 0.500 F 0.143 -0.488 20.5 V 0.70 -0.61 o 691 1.59 Yes Yes
2002FW5 O C 2013-10-04.44507 1.000E-05 03:38:00.630 1.500E-01 0.500 F -0.217 -0.228 +17° 14' 20.20" 1.000E-01 0.500 F 0.217 -0.014 18.6 V 0.70 -0.04 o 691 0.46 Yes Yes
2009FU4 O C 2013-10-04.45760 1.000E-05 03:49:40.990 1.500E-01 0.500 F -0.040 -0.331 +19° 22' 20.00" 1.000E-01 0.500 F 0.220 0.068 21.1 V 0.70 -0.40 o 691 0.68 Yes Yes
2000HW23 O C 2013-10-04.46022 1.000E-05 03:36:06.780 1.500E-01 0.500 F -0.343 -0.600 +16° 25' 16.40" 1.000E-01 0.500 F 0.143 -0.430 20.7 V 0.70 -0.41 o 691 1.49 Yes Yes
2002FW5 O C 2013-10-04.46022 1.000E-05 03:37:57.480 1.500E-01 0.500 F -0.217 -0.139 +17° 16' 06.00" 1.000E-01 0.500 F 0.217 0.149 18.7 V 0.70 0.06 o 691 0.41 Yes Yes
2007RU17 O C H 2013-10-04.47061 1.000E-05 08:42:56.890 1.500E-01 0.500 F -0.085 -0.871 +24° 40' 32.70" 1.000E-01 0.500 F 0.316 0.001 20.3 V 0.70 1.03 o 691 2.03 Yes Yes
2007RU17 O C H 2013-10-04.48329 1.000E-05 08:43:07.570 1.500E-01 0.500 F -0.085 3.001 +24° 40' 03.70" 1.000E-01 0.500 F 0.316 -0.135 20.3 V 0.70 1.03 o 691 5.36 No Yes
2007RU17 O C H 2013-10-04.49598 1.000E-05 08:43:17.950 1.500E-01 0.500 F -0.045 2.731 +24° 39' 34.20" 1.000E-01 0.500 F 0.283 -0.642 20.0 V 0.70 0.73 o 691 4.96 No Yes
2013RH74 O C 2013-10-05.17384 1.000E-05 01:39:00.430 1.500E-01 0.500 F -0.305 -0.121 +18° 41' 25.00" 1.000E-01 0.500 F 0.234 0.135 17.7 V 0.70 0.66 o 691 0.37 Yes Yes
2005TE15 O C H 2013-10-05.18127 1.000E-05 02:01:47.530 1.500E-01 0.500 F -0.276 0.449 +18° 49' 32.80" 1.000E-01 0.500 F 0.165 -1.415 o 691 2.98 Yes No
2013RH74 O C 2013-10-05.19155 1.000E-05 01:39:09.580 1.500E-01 0.500 F -0.345 -0.057 +18° 41' 40.10" 1.000E-01 0.500 F 0.292 -0.020 17.5 V 0.70 0.46 o 691 0.12 Yes Yes
2005TE15 O C H 2013-10-05.19897 1.000E-05 02:01:43.270 1.500E-01 0.500 F -0.276 -0.810 +18° 49' 46.00" 1.000E-01 0.500 F 0.165 -0.010 19.5 V 0.70 0.42 o 691 1.63 Yes Yes
2013RH74 O C 2013-10-05.20925 1.000E-05 01:39:18.620 1.500E-01 0.500 F -0.345 -1.087 +18° 41' 55.10" 1.000E-01 0.500 F 0.292 -0.031 17.3 V 0.70 0.27 o 691 2.19 Yes Yes
2005TE15 O C H 2013-10-05.21668 1.000E-05 02:01:39.150 1.500E-01 0.500 F -0.276 0.173 +18° 49' 57.60" 1.000E-01 0.500 F 0.165 -0.150 19.3 V 0.70 0.22 o 691 0.46 Yes Yes
2008WN2 O C H 2013-10-05.23265 1.000E-05 02:16:43.220 1.500E-01 0.500 F -0.253 0.484 +17° 58' 25.90" 1.000E-01 0.500 F 0.251 -0.859 21.7 V 0.70 0.11 o 691 1.98 Yes Yes
2008WN2 O C H 2013-10-05.25035 1.000E-05 02:16:42.080 1.500E-01 0.500 F -0.253 0.076 +17° 58' 20.10" 1.000E-01 0.500 F 0.251 0.103 21.7 V 0.70 0.11 o 691 0.26 Yes Yes
2008WN2 O C H 2013-10-05.26806 1.000E-05 02:16:40.940 1.500E-01 0.500 F -0.253 -0.210 +17° 58' 12.90" 1.000E-01 0.500 F 0.251 -0.289 21.9 V 0.70 0.31 o 691 0.72 Yes Yes
2000JQ66 O C H 2013-10-05.35592 1.000E-05 03:13:41.430 1.500E-01 0.500 F -0.256 -0.083 +12° 51' 21.00" 1.000E-01 0.500 F 0.252 0.045 20.5 V 0.70 0.23 o 691 0.19 Yes Yes
2000JQ66 O C H 2013-10-05.37363 1.000E-05 03:13:40.450 1.500E-01 0.500 F -0.256 -0.752 +12° 51' 11.30" 1.000E-01 0.500 F 0.252 0.360 20.2 V 0.70 -0.07 o 691 1.68 Yes Yes
2000JQ66 O C H 2013-10-05.39134 1.000E-05 03:13:39.560 1.500E-01 0.500 F -0.256 -0.076 +12° 51' 01.40" 1.000E-01 0.500 F 0.252 0.498 20.3 V 0.70 0.03 o 691 1.01 Yes Yes
1996DH O C H 2013-10-05.46443 1.000E-05 09:07:59.170 1.500E-01 0.500 F -0.014 -1.089 +22° 31' 22.10" 1.000E-01 0.500 F 0.284 0.360 20.8 V 0.70 -0.29 o 691 2.31 Yes Yes
1996DH O C H 2013-10-05.47716 1.000E-05 09:08:00.540 1.500E-01 0.500 F -0.014 0.171 +22° 31' 14.20" 1.000E-01 0.500 F 0.284 -0.096 21.1 V 0.70 0.01 o 691 0.40 Yes Yes
1996DH O C H 2013-10-05.48989 1.000E-05 09:08:01.810 1.500E-01 0.500 F -0.014 0.066 +22° 31' 06.50" 1.000E-01 0.500 F 0.284 -0.348 20.9 V 0.70 -0.19 o 691 0.71 Yes Yes
2001SK9 O C H 2013-10-06.17945 1.000E-05 01:42:46.400 1.500E-01 0.500 F -0.232 -0.244 +06° 33' 32.30" 1.000E-01 0.500 F 0.223 0.095 20.4 V 0.70 0.01 o 691 0.53 Yes Yes
2001SK9 O C H 2013-10-06.19709 1.000E-05 01:42:44.210 1.500E-01 0.500 F -0.232 -0.967 +06° 33' 10.20" 1.000E-01 0.500 F 0.223 -0.343 20.3 V 0.70 -0.09 o 691 2.06 Yes Yes
2001SK9 O C H 2013-10-06.21473 1.000E-05 01:42:42.120 1.500E-01 0.500 F -0.232 -0.138 +06° 32' 48.00" 1.000E-01 0.500 F 0.223 -0.878 20.8 V 0.70 0.41 o 691 1.78 Yes Yes
2005UK1 O C H 2013-10-08.36131 1.000E-05 03:12:45.220 1.500E-01 0.500 F -0.303 -0.819 +17° 08' 21.60" 1.000E-01 0.500 F 0.235 -1.067 21.3 V 0.70 -0.31 o 691 2.70 Yes Yes
2005UK1 O C H 2013-10-08.37920 1.000E-05 03:12:44.520 1.500E-01 0.500 F -0.303 -0.322 +17° 08' 18.80" 1.000E-01 0.500 F 0.235 -0.556 21.4 V 0.70 -0.21 o 691 1.29 Yes Yes
2000HW23 O C H 2013-10-08.38416 1.000E-05 03:32:36.770 1.500E-01 0.559 F -0.343 -0.379 +16° 29' 05.70" 1.000E-01 0.559 F 0.143 0.884 21.1 V 0.70 0.05 o 691 1.72 Yes Yes
2005UK1 O C H 2013-10-08.39710 1.000E-05 03:12:43.780 1.500E-01 0.500 F -0.303 -0.375 +17° 08' 15.60" 1.000E-01 0.500 F 0.235 -0.421 21.6 V 0.70 -0.01 o 691 1.13 Yes Yes
2000HW23 O C H 2013-10-08.40205 1.000E-05 03:32:35.670 1.500E-01 0.559 F -0.343 -0.435 +16° 29' 05.40" 1.000E-01 0.559 F 0.143 -0.246 21.0 V 0.70 -0.05 o 691 0.90 Yes Yes
2000HW23 O C 2013-10-08.41683 1.000E-05 03:32:34.760 1.500E-01 0.559 F -0.343 -0.488 +16° 29' 06.10" 1.000E-01 0.559 F 0.143 -0.212 20.7 V 0.70 -0.35 o 691 0.96 Yes Yes
2000HW23 O C 2013-10-08.43474 1.000E-05 03:32:33.700 1.500E-01 0.559 F -0.343 0.070 +16° 29' 07.20" 1.000E-01 0.559 F 0.143 0.105 21.3 V 0.70 0.25 o 691 0.23 Yes Yes
2000HW23 O C 2013-10-08.45264 1.000E-05 03:32:32.600 1.500E-01 0.559 F -0.343 0.040 +16° 29' 07.90" 1.000E-01 0.559 F 0.143 0.049 21.0 V 0.70 -0.05 o 691 0.11 Yes Yes
2013TG69 O C 2013-10-09.23452 1.000E-05 02:06:40.690 1.500E-01 0.500 F -0.271 -0.353 +19° 04' 30.00" 1.000E-01 0.500 F 0.155 0.094 20.6 V 0.70 0.49 o 691 0.74 Yes Yes
2013TG69 O C 2013-10-09.25241 1.000E-05 02:06:41.330 1.500E-01 0.500 F -0.271 -0.202 +19° 05' 04.20" 1.000E-01 0.500 F 0.155 -0.358 20.8 V 0.70 0.69 o 691 0.83 Yes Yes
2013TG69 O C 2013-10-09.27030 1.000E-05 02:06:41.940 1.500E-01 0.500 F -0.271 -0.324 +19° 05' 39.20" 1.000E-01 0.500 F 0.155 0.054 20.4 V 0.70 0.29 o 691 0.66 Yes Yes
2016NW22 O C 2013-10-12.15373 1.000E-05 00:53:56.090 1.500E-01 0.500 F -0.173 -0.202 +07° 13' 34.30" 1.000E-01 0.500 F 0.290 0.084 21.3 V 0.70 0.48 o 691 0.44 Yes Yes
2011SD173 O C 2013-10-12.15620 1.000E-05 01:01:07.780 1.500E-01 0.500 F -0.158 -0.376 +07° 39' 52.20" 1.000E-01 0.500 F 0.364 0.028 19.7 V 0.70 0.18 o 691 0.76 Yes Yes
2016NW22 O C 2013-10-12.17140 1.000E-05 00:53:55.450 1.500E-01 0.500 F -0.173 -0.271 +07° 13' 19.70" 1.000E-01 0.500 F 0.290 0.270 21.0 V 0.70 0.18 o 691 0.77 Yes Yes
2011SD173 O C 2013-10-12.17387 1.000E-05 01:01:05.960 1.500E-01 0.500 F -0.158 -0.104 +07° 39' 34.50" 1.000E-01 0.500 F 0.364 -0.013 19.6 V 0.70 0.08 o 691 0.21 Yes Yes
2016NW22 O C 2013-10-12.19253 1.000E-05 00:53:54.670 1.500E-01 0.500 F -0.173 -0.419 +07° 13' 02.20" 1.000E-01 0.500 F 0.290 0.468 20.6 V 0.70 -0.22 o 691 1.26 Yes Yes
2011SD173 O C 2013-10-12.19500 1.000E-05 01:01:03.740 1.500E-01 0.500 F -0.158 -0.304 +07° 39' 13.30" 1.000E-01 0.500 F 0.364 -0.085 19.5 V 0.70 -0.02 o 691 0.64 Yes Yes
2008TA1 O C H 2013-10-12.22212 1.000E-05 01:52:25.930 1.500E-01 0.500 F -0.204 -0.421 +12° 45' 20.00" 1.000E-01 0.500 F 0.258 0.166 20.2 V 0.70 0.31 o 691 0.91 Yes Yes
2008TA1 O C H 2013-10-12.23984 1.000E-05 01:52:23.560 1.500E-01 0.500 F -0.204 -0.468 +12° 45' 21.40" 1.000E-01 0.500 F 0.258 -0.104 20.1 V 0.70 0.21 o 691 0.96 Yes Yes
2008TA1 O C H 2013-10-12.26103 1.000E-05 01:52:20.760 1.500E-01 0.500 F -0.204 0.079 +12° 45' 23.00" 1.000E-01 0.500 F 0.258 -0.468 o 691 0.95 Yes No
2013TJ135 O C 2013-10-12.32852 1.000E-05 02:35:04.890 1.500E-01 0.500 F -0.119 -0.091 +12° 15' 27.30" 1.000E-01 0.500 F 0.264 -0.058 20.3 V 0.70 -0.01 o 691 0.22 Yes Yes
2013TJ135 O C 2013-10-12.34623 1.000E-05 02:35:01.510 1.500E-01 0.500 F -0.119 0.729 +12° 15' 53.10" 1.000E-01 0.500 F 0.264 -0.427 20.3 V 0.70 -0.01 o 691 1.74 Yes Yes
2013TJ135 O C 2013-10-12.36394 1.000E-05 02:34:57.990 1.500E-01 0.500 F -0.119 -0.497 +12° 16' 19.40" 1.000E-01 0.500 F 0.264 -0.228 20.4 V 0.70 0.09 o 691 1.11 Yes Yes
2005UK1 O C H 2013-10-12.39260 1.000E-05 03:09:49.720 1.500E-01 0.500 F -0.235 -0.120 +16° 54' 27.20" 1.000E-01 0.500 F 0.204 -0.823 20.5 V 0.70 -0.93 o 691 1.67 Yes Yes
2000HW23 O C H 2013-10-12.39756 1.000E-05 03:28:24.590 1.500E-01 0.559 F -0.349 -0.180 +16° 31' 13.60" 1.000E-01 0.559 F 0.238 0.188 21.0 V 0.70 0.02 o 691 0.47 Yes Yes
2005UK1 O C H 2013-10-12.41032 1.000E-05 03:09:48.810 1.500E-01 0.500 F -0.235 -0.309 +16° 54' 22.70" 1.000E-01 0.500 F 0.204 -1.263 o 691 2.60 Yes No
2000HW23 O C H 2013-10-12.43353 1.000E-05 03:28:22.070 1.500E-01 0.559 F -0.349 -0.138 +16° 31' 13.60" 1.000E-01 0.559 F 0.238 -0.432 21.1 V 0.70 0.12 o 691 0.81 Yes Yes
2000HW23 O C 2013-10-12.44823 1.000E-05 03:28:21.000 1.500E-01 0.559 F -0.349 -0.707 +16° 31' 14.10" 1.000E-01 0.559 F 0.238 -0.155 20.6 V 0.70 -0.38 o 691 1.30 Yes Yes
2013TV144 O C 2013-10-12.45319 1.000E-05 03:47:09.260 1.500E-01 0.500 F -0.091 -0.216 +17° 42' 55.70" 1.000E-01 0.500 F 0.259 -0.396 20.4 V 0.70 -0.43 o 691 0.91 Yes Yes
2000HW23 O C 2013-10-12.46596 1.000E-05 03:28:19.810 1.500E-01 0.559 F -0.349 0.037 +16° 31' 14.60" 1.000E-01 0.559 F 0.238 0.099 20.8 V 0.70 -0.18 o 691 0.19 Yes Yes
2013TV144 O C 2013-10-12.47092 1.000E-05 03:47:08.590 1.500E-01 0.500 F -0.091 -0.311 +17° 43' 00.00" 1.000E-01 0.500 F 0.259 -0.106 20.8 V 0.70 -0.03 o 691 0.66 Yes Yes
2000HW23 O C 2013-10-12.48368 1.000E-05 03:28:18.580 1.500E-01 0.559 F -0.349 0.169 +16° 31' 14.60" 1.000E-01 0.559 F 0.238 -0.123 21.1 V 0.70 0.12 o 691 0.38 Yes Yes
2013TV144 O C 2013-10-12.48864 1.000E-05 03:47:07.950 1.500E-01 0.500 F -0.091 -0.049 +17° 43' 04.00" 1.000E-01 0.500 F 0.259 -0.047 20.4 V 0.70 -0.43 o 691 0.14 Yes Yes
2008WN2 O C H 2013-10-13.26204 1.000E-05 02:07:04.960 1.500E-01 0.500 F -0.319 1.135 +16° 51' 05.50" 1.000E-01 0.500 F 0.203 -0.407 o 691 2.43 Yes No
2008WN2 O C H 2013-10-13.28666 1.000E-05 02:07:02.730 1.500E-01 0.500 F -0.319 0.770 +16° 50' 51.00" 1.000E-01 0.500 F 0.203 -0.107 o 691 1.57 Yes No
2008WN2 O C H 2013-10-13.30436 1.000E-05 02:07:01.130 1.500E-01 0.500 F -0.319 0.634 +16° 50' 39.90" 1.000E-01 0.500 F 0.203 -0.503 o 691 1.63 Yes No
2013TJ135 O C 2013-10-13.33299 1.000E-05 02:31:59.230 1.500E-01 0.500 F -0.134 -1.067 +12° 39' 39.60" 1.000E-01 0.500 F 0.260 0.647 20.4 V 0.70 0.08 o 691 2.55 Yes Yes
2013TJ135 O C 2013-10-13.35419 1.000E-05 02:31:55.230 1.500E-01 0.500 F -0.134 -0.356 +12° 40' 08.90" 1.000E-01 0.500 F 0.260 -0.085 20.4 V 0.70 0.08 o 691 0.74 Yes Yes
2013TJ135 O C 2013-10-13.37191 1.000E-05 02:31:51.800 1.500E-01 0.500 F -0.134 -1.044 +12° 40' 32.90" 1.000E-01 0.500 F 0.260 -1.112 20.9 V 0.70 0.58 o 691 3.10 Yes Yes
1990TG1 O C 2013-10-14.18197 1.000E-05 01:52:43.380 1.500E-01 0.500 F -0.203 -0.582 +11° 04' 18.30" 1.000E-01 0.500 F 0.306 -0.204 19.4 V 0.70 0.29 o 691 1.23 Yes Yes
1990TG1 O C 2013-10-14.19968 1.000E-05 01:52:42.200 1.500E-01 0.500 F -0.203 -0.391 +11° 04' 10.50" 1.000E-01 0.500 F 0.306 0.186 19.4 V 0.70 0.29 o 691 0.87 Yes Yes
1990TG1 O C 2013-10-14.21738 1.000E-05 01:52:41.030 1.500E-01 0.500 F -0.203 -0.031 +11° 04' 02.30" 1.000E-01 0.500 F 0.306 0.178 20.3 V 0.70 1.19 o 691 0.36 Yes Yes
2008TD4 O C H 2013-10-14.43558 1.000E-05 03:25:01.800 1.500E-01 0.500 F -0.260 0.049 +23° 50' 32.50" 1.000E-01 0.500 F 0.273 -0.724 o 691 1.46 Yes No
2008TD4 O C H 2013-10-14.45331 1.000E-05 03:24:59.150 1.500E-01 0.500 F -0.260 0.411 +23° 50' 06.50" 1.000E-01 0.500 F 0.273 -0.691 o 691 1.62 Yes No
2013SE21 O C 2013-10-15.30115 1.000E-05 02:54:13.100 1.500E-01 0.500 F -0.322 0.016 +19° 44' 43.10" 1.000E-01 0.500 F 0.268 -0.045 19.5 V 0.70 -0.19 o 691 0.10 Yes Yes
2013SE21 O C 2013-10-15.31887 1.000E-05 02:54:22.990 1.500E-01 0.500 F -0.322 -0.062 +19° 46' 28.40" 1.000E-01 0.500 F 0.268 -0.044 19.7 V 0.70 0.01 o 691 0.16 Yes Yes
2013SE21 O C 2013-10-15.33658 1.000E-05 02:54:32.830 1.500E-01 0.500 F -0.322 -0.418 +19° 48' 12.60" 1.000E-01 0.500 F 0.268 -0.620 19.9 V 0.70 0.21 o 691 1.56 Yes Yes
2013TS4 O C 2013-10-15.43366 1.000E-05 03:18:09.660 1.500E-01 0.500 F -0.260 -1.943 +20° 09' 07.50" 1.000E-01 0.500 F 0.296 -1.499 19.2 V 0.70 -0.52 o 691 4.87 No Yes
2009FU4 O C H 2013-10-15.43861 1.000E-05 03:37:06.520 1.500E-01 0.500 F -0.189 0.236 +19° 33' 37.70" 1.000E-01 0.500 F 0.211 -0.427 o 691 0.98 Yes No
2013TS4 O C 2013-10-15.45140 1.000E-05 03:18:11.450 1.500E-01 0.500 F -0.260 -0.092 +20° 09' 05.30" 1.000E-01 0.500 F 0.296 -0.082 19.8 V 0.70 0.09 o 691 0.25 Yes Yes
2009FU4 O C H 2013-10-15.45635 1.000E-05 03:37:05.050 1.500E-01 0.500 F -0.189 -0.272 +19° 33' 39.10" 1.000E-01 0.500 F 0.211 0.631 o 691 1.38 Yes No
2013TS4 O C 2013-10-15.46913 1.000E-05 03:18:13.120 1.500E-01 0.500 F -0.260 -0.052 +20° 09' 01.60" 1.000E-01 0.500 F 0.296 -0.055 19.9 V 0.70 0.19 o 691 0.15 Yes Yes
2009FU4 O C H 2013-10-15.47408 1.000E-05 03:37:03.670 1.500E-01 0.500 F -0.189 0.464 +19° 33' 38.40" 1.000E-01 0.500 F 0.211 -0.390 o 691 1.22 Yes No
2006VV2 O C 2013-10-23.11371 1.000E-05 00:22:54.780 1.500E-01 0.500 F -0.190 -0.806 +06° 33' 24.70" 1.000E-01 0.500 F 0.286 0.002 20.7 V 0.70 -0.14 o 691 1.61 Yes Yes
2006VV2 O C 2013-10-23.17986 1.000E-05 00:22:49.690 1.500E-01 0.500 F -0.190 -0.118 +06° 33' 15.30" 1.000E-01 0.500 F 0.286 0.339 20.7 V 0.70 -0.14 o 691 0.72 Yes Yes
2006VV2 O C 2013-10-23.23616 1.000E-05 00:22:45.250 1.500E-01 0.500 F -0.190 -0.974 +06° 33' 06.60" 1.000E-01 0.500 F 0.286 -0.022 20.6 V 0.70 -0.24 o 691 1.95 Yes Yes
2005UK1 O C H 2013-10-23.34758 1.000E-05 02:58:40.140 1.500E-01 0.500 F -0.256 -0.282 +16° 01' 55.00" 1.000E-01 0.500 F 0.284 -0.277 21.0 V 0.70 0.10 o 691 0.79 Yes Yes
2005UK1 O C H 2013-10-23.36530 1.000E-05 02:58:38.850 1.500E-01 0.500 F -0.256 0.646 +16° 01' 48.50" 1.000E-01 0.500 F 0.284 -0.572 o 691 1.73 Yes No
2005UK1 O C H 2013-10-23.38302 1.000E-05 02:58:37.430 1.500E-01 0.500 F -0.256 -0.299 +16° 01' 41.70" 1.000E-01 0.500 F 0.284 -1.143 o 691 2.37 Yes No
2011SD173 O C H 2013-10-24.08801 1.000E-05 00:44:52.150 1.500E-01 0.500 F -0.217 -0.997 +04° 50' 52.30" 1.000E-01 0.500 F 0.134 -0.136 20.8 V 0.70 0.31 o 691 2.02 Yes Yes
2011SD173 O C H 2013-10-24.11260 1.000E-05 00:44:50.610 1.500E-01 0.500 F -0.217 -0.003 +04° 50' 35.50" 1.000E-01 0.500 F 0.134 -0.224 20.7 V 0.70 0.21 o 691 0.45 Yes Yes
2011SD173 O C H 2013-10-24.14833 1.000E-05 00:44:48.260 1.500E-01 0.500 F -0.217 0.056 +04° 50' 11.40" 1.000E-01 0.500 F 0.134 -0.045 20.6 V 0.70 0.11 o 691 0.14 Yes Yes
2013HG20 O C H 2013-10-25.08474 1.000E-05 00:33:26.860 1.500E-01 0.500 F -0.192 0.098 +03° 36' 34.60" 1.000E-01 0.500 F 0.198 0.477 21.2 V 0.70 0.06 o 691 0.98 Yes Yes
2013HG20 O C H 2013-10-25.16335 1.000E-05 00:33:27.050 1.500E-01 0.500 F -0.192 0.009 +03° 36' 01.40" 1.000E-01 0.500 F 0.198 -0.505 21.4 V 0.70 0.26 o 691 1.01 Yes Yes
2008TD4 O C 2013-10-25.18883 1.000E-05 02:59:09.680 1.500E-01 0.500 F -0.259 -1.016 +19° 25' 04.20" 1.000E-01 0.500 F 0.235 -0.337 20.9 V 0.70 0.32 o 691 2.17 Yes Yes
2008TD4 O C 2013-10-25.20656 1.000E-05 02:59:07.240 1.500E-01 0.500 F -0.259 0.116 +19° 24' 39.30" 1.000E-01 0.500 F 0.235 0.488 20.2 V 0.70 -0.38 o 691 1.01 Yes Yes
2008TD4 O C 2013-10-25.22429 1.000E-05 02:59:04.710 1.500E-01 0.500 F -0.259 0.069 +19° 24' 12.80" 1.000E-01 0.500 F 0.235 -0.258 20.9 V 0.70 0.32 o 691 0.54 Yes Yes
2013TS4 O C 2013-10-25.23937 1.000E-05 03:33:38.780 1.500E-01 0.500 F -0.261 0.038 +19° 21' 37.30" 1.000E-01 0.500 F 0.233 -0.020 19.6 V 0.70 0.20 o 691 0.09 Yes Yes
2013TV144 O C 2013-10-25.23937 1.000E-05 03:36:07.310 1.500E-01 0.500 F -0.191 0.114 +18° 20' 22.40" 1.000E-01 0.500 F 0.172 -0.110 20.5 V 0.70 -0.08 o 691 0.32 Yes Yes
2004HW O C 2013-10-25.24184 1.000E-05 03:46:34.820 1.500E-01 0.500 F -0.040 -0.417 +19° 42' 45.80" 1.000E-01 0.500 F 0.221 -0.171 20.8 V 0.70 -0.08 o 691 0.91 Yes Yes
2003QO104 O C H 2013-10-25.25199 1.000E-05 03:46:54.420 1.500E-01 0.500 F -0.091 -0.583 +17° 35' 50.20" 1.000E-01 0.500 F 0.259 0.524 21.7 V 0.70 0.86 o 691 1.57 Yes Yes
2013TV144 O C 2013-10-25.25708 1.000E-05 03:36:05.950 1.500E-01 0.500 F -0.191 0.000 +18° 20' 24.90" 1.000E-01 0.500 F 0.172 -0.029 20.7 V 0.70 0.12 o 691 0.06 Yes Yes
2013TS4 O C 2013-10-25.25708 1.000E-05 03:33:40.080 1.500E-01 0.500 F -0.261 -0.059 +19° 21' 31.00" 1.000E-01 0.500 F 0.233 -0.113 19.7 V 0.70 0.30 o 691 0.26 Yes Yes
2004HW O C 2013-10-25.25956 1.000E-05 03:46:33.500 1.500E-01 0.500 F -0.040 -0.400 +19° 42' 41.60" 1.000E-01 0.500 F 0.221 -0.083 20.7 V 0.70 -0.18 o 691 0.82 Yes Yes
2003QO104 O C H 2013-10-25.26970 1.000E-05 03:46:53.450 1.500E-01 0.500 F -0.091 0.806 +17° 35' 47.20" 1.000E-01 0.500 F 0.259 -1.006 21.2 V 0.70 0.36 o 691 2.58 Yes Yes
2013TV144 O C 2013-10-25.27479 1.000E-05 03:36:04.540 1.500E-01 0.500 F -0.191 -0.675 +18° 20' 26.80" 1.000E-01 0.500 F 0.172 -0.490 20.1 V 0.70 -0.48 o 691 1.68 Yes Yes
2013TS4 O C 2013-10-25.27479 1.000E-05 03:33:41.380 1.500E-01 0.500 F -0.261 0.081 +19° 21' 24.60" 1.000E-01 0.500 F 0.233 -0.207 19.4 V 0.70 0.01 o 691 0.45 Yes Yes
2004HW O C 2013-10-25.27727 1.000E-05 03:46:32.150 1.500E-01 0.500 F -0.040 -0.775 +19° 42' 37.60" 1.000E-01 0.500 F 0.221 0.220 20.7 V 0.70 -0.18 o 691 1.62 Yes Yes
2003QO104 O C H 2013-10-25.28742 1.000E-05 03:46:52.310 1.500E-01 0.500 F -0.091 -0.196 +17° 35' 46.90" 1.000E-01 0.500 F 0.259 0.176 21.5 V 0.70 0.66 o 691 0.53 Yes Yes
2013TG5 O C 2013-10-25.35529 1.000E-05 04:38:09.430 1.500E-01 0.500 F -0.087 0.125 +15° 08' 24.30" 1.000E-01 0.500 F 0.203 -0.114 20.1 V 0.70 0.27 o 691 0.34 Yes Yes
2013TG5 O C 2013-10-25.37597 1.000E-05 04:38:08.180 1.500E-01 0.500 F -0.087 -0.366 +15° 09' 32.50" 1.000E-01 0.500 F 0.203 0.327 20.1 V 0.70 0.27 o 691 0.99 Yes Yes
2013TG5 O C 2013-10-25.39457 1.000E-05 04:38:07.120 1.500E-01 0.500 F -0.158 0.274 +15° 10' 33.10" 1.000E-01 0.500 F 0.211 0.033 20.0 V 0.70 0.17 o 691 0.56 Yes Yes
2002WQ4 O C H 2013-10-25.42328 1.000E-05 04:11:36.620 1.500E-01 0.500 F -0.013 0.332 +27° 24' 17.50" 1.000E-01 0.500 F 0.212 -0.150 20.8 V 0.70 0.09 o 691 0.73 Yes Yes
2002WQ4 O C H 2013-10-25.44103 1.000E-05 04:11:36.460 1.500E-01 0.500 F -0.013 -0.139 +27° 24' 19.90" 1.000E-01 0.500 F 0.212 0.580 20.8 V 0.70 0.09 o 691 1.20 Yes Yes
2002WQ4 O C H 2013-10-25.45878 1.000E-05 04:11:36.310 1.500E-01 0.500 F -0.013 -0.507 +27° 24' 20.80" 1.000E-01 0.500 F 0.212 -0.127 20.9 V 0.70 0.19 o 691 1.05 Yes Yes
2011SD173 O C 2013-10-26.09053 1.000E-05 00:42:53.040 1.500E-01 0.500 F -0.190 0.102 +04° 28' 57.40" 1.000E-01 0.500 F 0.096 -0.135 21.2 V 0.70 0.58 o 691 0.34 Yes Yes
2011SD173 O C 2013-10-26.11198 1.000E-05 00:42:51.720 1.500E-01 0.500 F -0.190 -0.698 +04° 28' 44.20" 1.000E-01 0.500 F 0.096 0.055 21.1 V 0.70 0.48 o 691 1.41 Yes Yes
2011SD173 O C 2013-10-26.14267 1.000E-05 00:42:49.950 1.500E-01 0.500 F -0.190 0.135 +04° 28' 25.20" 1.000E-01 0.500 F 0.096 0.209 20.4 V 0.70 -0.22 o 691 0.50 Yes Yes
2013TG5 O C 2013-10-26.35713 1.000E-05 04:37:15.720 1.500E-01 0.500 F -0.158 -0.095 +16° 03' 08.70" 1.000E-01 0.500 F 0.211 0.135 20.0 V 0.70 0.20 o 691 0.33 Yes Yes
2013TG5 O C 2013-10-26.37758 1.000E-05 04:37:14.420 1.500E-01 0.500 F -0.163 -0.098 +16° 04' 16.20" 1.000E-01 0.500 F 0.266 0.206 20.1 V 0.70 0.30 o 691 0.46 Yes Yes
2013TG5 O C 2013-10-26.39622 1.000E-05 04:37:13.220 1.500E-01 0.500 F -0.163 -0.249 +16° 05' 17.40" 1.000E-01 0.500 F 0.266 0.060 20.0 V 0.70 0.20 o 691 0.52 Yes Yes
2004GD28 O C 2013-10-27.26886 1.000E-05 04:01:03.630 1.500E-01 0.500 F -0.228 -0.569 +13° 34' 37.10" 1.000E-01 0.500 F 0.085 -0.023 19.4 V 0.70 0.00 o 691 1.14 Yes Yes

[1-200] [201-400] [401-600] [601-800] [801-1000] [1001-1200] [1201-1400] [1401-1600] [1601-1800] [1801-2000] [2001-2200] [2201-2400] [2401-2600] [2601-2800] [2801-3000] [3001-3200] [3201-3400] [3401-3600] [3601-3800] [3801-4000] [4001-4200] [4201-4400] [4401-4600] [4601-4800] [4801-5000] [5001-5200] [5201-5400] [5401-5600] [5601-5800] [5801-6000] [6001-6200] [6201-6400] [6401-6600] [6601-6800] [6801-7000] [7001-7200] [7201-7400] [7401-7600] [7601-7800] [7801-8000] [8001-8200] [8201-8400] [8401-8600] [8601-8800] [8801-9000] [9001-9200] [9201-9400] [9401-9600] [9601-9800] [9801-10000] [10001-10200] [10201-10400] [10401-10600] [10601-10800] [10801-11000] [11001-11200] [11201-11400] [11401-11600] [11601-11800] [11801-12000] [12001-12200] [12201-12400] [12401-12600] [12601-12800] [12801-13000] [13001-13200] [13201-13400] [13401-13600] [13601-13800] [13801-14000] [14001-14200] [14201-14400] [14401-14600] [14601-14800] [14801-15000] [15001-15200] [15201-15400] [15401-15600] [15601-15800] [15801-16000] [16001-16200] [16201-16400] [16401-16600] [16601-16800] [16801-17000] [17001-17200] [17201-17400] [17401-17600] [17601-17800] [17801-18000] [18001-18200] [18201-18400] [18401-18600] [18601-18800] [18801-19000] [19001-19200] [19201-19400] [19401-19600] [19601-19800] [19801-20000] [20001-20200] [20201-20400] [20401-20600] [20601-20800] [20801-21000] [21001-21200] [21201-21400] [21401-21600] [21601-21800] [21801-22000] [22001-22200] [22201-22400] [22401-22600] [22601-22800] [22801-23000] [23001-23200] [23201-23400] [23401-23600] [23601-23800] [23801-24000] [24001-24200] [24201-24400] [24401-24600] [24601-24800] [24801-25000] [25001-25200] [25201-25400] [25401-25600] [25601-25800] [25801-26000] [26001-26200] [26201-26400] [26401-26600] [26601-26800] [26801-27000] [27001-27200] [27201-27400] [27401-27600] [27601-27800] [27801-28000] [28001-28200] [28201-28400] [28401-28600] [28601-28800] [28801-29000] [29001-29200] [29201-29400] [29401-29600] [29601-29800] [29801-30000] [30001-30200] [30201-30400] [30401-30600] [30601-30800] [30801-31000] [31001-31200] [31201-31400] [31401-31600] [31601-31800] [31801-32000] [32001-32200] [32201-32400] [32401-32600] [32601-32800] [32801-33000] [33001-33200] [33201-33400] [33401-33600] [33601-33800] [33801-34000] [34001-34200] [34201-34400] [34401-34600] [34601-34800] [34801-35000] [35001-35200] [35201-35400] [35401-35600] [35601-35800] [35801-36000] [36001-36200] [36201-36400] [36401-36600] [36601-36800] [36801-37000] [37001-37200] [37201-37400] [37401-37600] [37601-37800] [37801-38000] [38001-38200] [38201-38400] [38401-38600] [38601-38800] [38801-39000] [39001-39200] [39201-39400] [39401-39600] [39601-39800] [39801-40000] [40001-40200] [40201-40400] [40401-40600] [40601-40800] [40801-41000] [41001-41200] [41201-41400] [41401-41600] [41601-41800] [41801-42000] [42001-42200] [42201-42400] [42401-42600] [42601-42800] [42801-43000] [43001-43200] [43201-43400] [43401-43600] [43601-43800] [43801-44000] [44001-44200] [44201-44400] [44401-44600] [44601-44800] [44801-45000] [45001-45200] [45201-45400] [45401-45600] [45601-45800] [45801-46000] [46001-46200] [46201-46400] [46401-46600] [46601-46800] [46801-47000] [47001-47200] [47201-47400] [47401-47600] [47601-47800] [47801-48000] [48001-48200] [48201-48400] [48401-48600] [48601-48800] [48801-49000] [49001-49200] [49201-49400] [49401-49600] [49601-49800] [49801-50000] [50001-50200] [50201-50400] [50401-50600] [50601-50741]